createdAt,value
2024-01-15T00:00:26.817Z,99001.03
2024-01-15T00:03:48.792Z,98986.75
2024-01-15T00:07:11.255Z,98980.31
2024-01-15T00:10:32.637Z,98969.09
2024-01-15T00:13:55.919Z,98969.47
2024-01-15T00:17:17.320Z,98952.06
2024-01-15T00:20:38.518Z,98938.72
2024-01-15T00:23:59.972Z,98948.13
2024-01-15T00:27:21.198Z,98933.56
2024-01-15T00:30:44.812Z,98932.38
2024-01-15T00:34:06.762Z,98932.03
2024-01-15T00:37:28.075Z,98920.78
2024-01-15T00:40:49.612Z,98920.19
2024-01-15T00:44:11.355Z,98911.97
2024-01-15T00:47:34.092Z,98910.66
2024-01-15T00:50:56.016Z,98905.06
2024-01-15T00:54:17.390Z,98897.56
2024-01-15T00:57:39.373Z,98895.41
2024-01-15T01:01:01.013Z,98890.03
2024-01-15T01:04:24.226Z,98896.78
2024-01-15T01:07:45.928Z,98886.53
2024-01-15T01:11:08.009Z,98885.50
2024-01-15T01:14:29.550Z,98888.44
2024-01-15T01:17:50.887Z,98886.06
2024-01-15T01:21:13.875Z,98883.91
2024-01-15T01:24:35.520Z,98881.06
2024-01-15T01:27:57.131Z,98867.22
2024-01-15T01:31:19.125Z,98879.28
2024-01-15T01:34:43.148Z,98878.91
2024-01-15T01:38:06.073Z,98883.41
2024-01-15T01:41:27.439Z,98883.75
2024-01-15T01:44:48.871Z,98885.66
2024-01-15T01:48:10.599Z,98876.75
2024-01-15T01:51:32.116Z,98881.50
2024-01-15T01:54:56.291Z,98868.41
2024-01-15T01:58:17.846Z,98878.03
2024-01-15T02:01:39.452Z,98870.28
2024-01-15T02:05:01.486Z,98875.25
2024-01-15T02:08:23.683Z,98872.91
2024-01-15T02:11:48.878Z,98865.06
2024-01-15T02:15:10.324Z,98850.53
2024-01-15T02:18:42.176Z,98843.47
2024-01-15T02:22:04.032Z,98852.38
2024-01-15T02:25:26.894Z,98853.34
2024-01-15T02:28:48.339Z,98871.59
2024-01-15T02:32:11.050Z,98845.72
2024-01-15T02:35:32.520Z,98852.84
2024-01-15T02:38:53.863Z,98839.03
2024-01-15T02:42:16.530Z,98837.13
2024-01-15T02:45:38.607Z,98835.69
2024-01-15T02:49:00.649Z,98833.78
2024-01-15T02:52:22.564Z,98840.69
2024-01-15T02:55:44.266Z,98835.00
2024-01-15T02:59:07.271Z,98824.31
2024-01-15T03:02:28.892Z,98818.69
2024-01-15T03:05:50.287Z,98812.88
2024-01-15T03:09:11.647Z,98817.88
2024-01-15T03:12:33.509Z,98804.16
2024-01-15T03:15:56.371Z,98801.31
2024-01-15T03:19:18.279Z,98795.34
2024-01-15T03:22:39.910Z,98795.97
2024-01-15T03:26:01.023Z,98792.50
2024-01-15T03:29:22.987Z,98780.97
2024-01-15T03:32:45.707Z,98782.63
2024-01-15T03:36:08.377Z,98774.16
2024-01-15T03:39:30.070Z,98773.34
2024-01-15T03:42:51.913Z,98766.19
2024-01-15T03:46:13.770Z,98770.25
2024-01-15T03:49:36.571Z,98758.44
2024-01-15T03:52:58.267Z,98753.31
2024-01-15T03:56:19.659Z,98752.72
2024-01-15T03:59:42.671Z,98747.47
2024-01-15T04:03:04.735Z,98747.84
2024-01-15T04:06:27.744Z,98741.41
2024-01-15T04:09:49.552Z,98735.06
2024-01-15T04:13:11.217Z,98732.81
2024-01-15T04:16:32.414Z,98745.81
2024-01-15T04:19:53.951Z,98735.91
2024-01-15T04:23:16.671Z,98735.22
2024-01-15T04:26:38.094Z,98731.28
2024-01-15T04:29:59.442Z,98734.63
2024-01-15T04:33:20.887Z,98720.78
2024-01-15T04:36:43.079Z,98706.84
2024-01-15T04:40:06.829Z,98733.19
2024-01-15T04:43:28.216Z,98731.63
2024-01-15T04:46:50.221Z,98723.06
2024-01-15T04:50:11.799Z,98706.84
2024-01-15T04:53:32.999Z,98728.28
2024-01-15T04:56:55.634Z,98707.94
2024-01-15T05:00:17.530Z,98704.22
2024-01-15T05:03:38.876Z,98693.97
2024-01-15T05:07:00.633Z,98693.72
2024-01-15T05:10:22.506Z,98704.59
2024-01-15T05:13:45.156Z,98717.81
2024-01-15T05:17:09.679Z,98706.75
2024-01-15T05:20:33.258Z,98708.63
2024-01-15T05:23:54.776Z,98695.41
2024-01-15T05:27:16.008Z,98693.50
2024-01-15T05:30:39.170Z,98687.91
2024-01-15T05:34:01.144Z,98673.47
2024-01-15T05:37:23.277Z,98688.16
2024-01-15T05:40:44.739Z,98701.97
2024-01-15T05:44:06.858Z,98693.88
2024-01-15T05:47:29.736Z,98674.56
2024-01-15T05:50:51.135Z,98686.81
2024-01-15T05:54:12.405Z,98676.81
2024-01-15T05:57:33.579Z,98675.38
2024-01-15T06:00:54.995Z,98679.19
2024-01-15T06:04:18.068Z,98679.69
2024-01-15T06:07:39.776Z,98672.88
2024-01-15T06:11:02.262Z,98696.47
2024-01-15T06:14:24.123Z,98689.22
2024-01-15T06:17:45.438Z,98679.69
2024-01-15T06:21:08.742Z,98692.09
2024-01-15T06:24:30.334Z,98689.13
2024-01-15T06:27:51.658Z,98680.16
2024-01-15T06:31:13.564Z,98686.09
2024-01-15T06:34:35.134Z,98677.91
2024-01-15T06:37:57.640Z,98677.91
2024-01-15T06:41:18.929Z,98667.97
2024-01-15T06:44:40.227Z,98685.63
2024-01-15T06:48:01.529Z,98692.44
2024-01-15T06:51:23.269Z,98684.31
2024-01-15T06:54:46.192Z,98702.34
2024-01-15T06:58:08.080Z,98695.19
2024-01-15T07:01:29.597Z,98713.06
2024-01-15T07:04:51.251Z,98733.78
2024-01-15T07:08:12.624Z,98729.84
2024-01-15T07:11:35.198Z,98725.31
2024-01-15T07:14:56.812Z,98737.47
2024-01-15T07:18:18.704Z,98714.00
2024-01-15T07:21:41.176Z,98732.34
2024-01-15T07:25:02.978Z,98740.31
2024-01-15T07:28:26.365Z,98729.03
2024-01-15T07:31:50.924Z,98744.03
2024-01-15T07:35:12.864Z,98737.38
2024-01-15T07:38:34.137Z,98736.88
2024-01-15T07:41:55.569Z,98748.69
2024-01-15T07:45:18.614Z,98753.56
2024-01-15T07:48:40.343Z,98739.63
2024-01-15T07:52:02.218Z,98754.28
2024-01-15T07:55:24.035Z,98741.16
2024-01-15T07:58:45.696Z,98758.56
2024-01-15T08:02:08.422Z,98755.84
2024-01-15T08:05:29.876Z,98751.19
2024-01-15T08:08:51.259Z,98765.84
2024-01-15T08:12:13.865Z,98754.41
2024-01-15T08:15:35.533Z,98767.13
2024-01-15T08:18:58.850Z,98760.94
2024-01-15T08:22:20.496Z,98766.91
2024-01-15T08:25:41.940Z,98764.28
2024-01-15T08:29:03.211Z,98755.44
2024-01-15T08:32:24.430Z,98752.47
2024-01-15T08:35:47.841Z,98769.88
2024-01-15T08:39:10.261Z,98765.50
2024-01-15T08:42:32.308Z,98768.81
2024-01-15T08:45:53.993Z,98765.09
2024-01-15T08:49:15.462Z,98776.06
2024-01-15T08:52:39.348Z,98775.97
2024-01-15T08:56:00.741Z,98780.81
2024-01-15T08:59:26.756Z,98777.03
2024-01-15T09:02:48.357Z,98787.28
2024-01-15T09:06:10.620Z,98767.13
2024-01-15T09:09:33.333Z,98777.50
2024-01-15T09:12:55.192Z,98765.91
2024-01-15T09:16:16.938Z,98777.38
2024-01-15T09:19:40.290Z,98765.91
2024-01-15T09:23:02.088Z,98794.78
2024-01-15T09:26:24.990Z,98782.97
2024-01-15T09:29:47.238Z,98788.38
2024-01-15T09:33:08.888Z,98784.06
2024-01-15T09:36:30.825Z,98783.13
2024-01-15T09:39:52.532Z,98799.53
2024-01-15T09:43:17.834Z,98788.59
2024-01-15T09:46:39.295Z,98780.97
2024-01-15T09:50:01.481Z,98793.13
2024-01-15T09:53:23.510Z,98797.19
2024-01-15T09:56:47.621Z,98800.75
2024-01-15T10:00:13.106Z,98795.28
2024-01-15T10:03:35.392Z,98776.44
2024-01-15T10:06:58.689Z,98782.84
2024-01-15T10:10:20.284Z,98776.16
2024-01-15T10:13:42.111Z,98788.81
2024-01-15T10:17:14.249Z,98790.25
2024-01-15T10:20:35.443Z,98806.09
2024-01-15T10:23:56.752Z,98777.00
2024-01-15T10:27:18.420Z,98772.94
2024-01-15T10:30:39.953Z,98779.03
2024-01-15T10:34:16.415Z,98781.53
2024-01-15T10:37:38.372Z,98788.44
2024-01-15T10:40:59.830Z,98796.19
2024-01-15T10:44:21.505Z,98804.91
2024-01-15T10:47:43.040Z,98824.25
2024-01-15T10:51:11.927Z,98792.78
2024-01-15T10:54:34.446Z,98809.34
2024-01-15T10:57:57.840Z,98797.28
2024-01-15T11:01:21.011Z,98795.13
2024-01-15T11:04:42.989Z,98785.16
2024-01-15T11:08:08.128Z,98787.84
2024-01-15T11:11:29.414Z,98795.94
2024-01-15T11:14:52.236Z,98785.47
2024-01-15T11:18:14.225Z,98794.75
2024-01-15T11:21:44.468Z,98784.97
2024-01-15T11:25:15.990Z,98776.03
2024-01-15T11:28:56.921Z,98783.41
2024-01-15T11:32:20.748Z,98770.59
2024-01-15T11:35:51.795Z,98786.69
2024-01-15T11:39:44.469Z,98789.66
2024-01-15T11:43:08.698Z,98776.66
2024-01-15T11:46:39.809Z,98785.84
2024-01-15T11:50:03.342Z,98777.72
2024-01-15T11:53:36.234Z,98794.06
2024-01-15T11:57:01.293Z,98792.00
2024-01-15T12:00:25.323Z,98790.06
2024-01-15T12:03:49.244Z,98800.22
2024-01-15T12:07:10.849Z,98789.47
2024-01-15T12:10:32.828Z,98801.28
2024-01-15T12:13:56.061Z,98804.06
2024-01-15T12:17:18.728Z,98814.66
2024-01-15T12:20:40.298Z,98805.59
2024-01-15T12:24:01.733Z,98815.13
2024-01-15T12:27:23.443Z,98812.69
2024-01-15T12:30:50.458Z,98828.25
2024-01-15T12:34:13.480Z,98812.13
2024-01-15T12:37:37.466Z,98826.22
2024-01-15T12:40:58.969Z,98813.09
2024-01-15T12:44:20.186Z,98813.56
2024-01-15T12:47:42.218Z,98817.72
2024-01-15T12:51:08.153Z,98856.44
2024-01-15T12:54:29.607Z,98845.72
2024-01-15T12:57:53.842Z,98844.81
2024-01-15T13:01:15.839Z,98855.81
2024-01-15T13:04:37.540Z,98875.34
2024-01-15T13:08:01.342Z,98885.84
2024-01-15T13:11:23.033Z,98905.19
2024-01-15T13:14:44.451Z,98921.91
2024-01-15T13:18:06.615Z,98944.19
2024-01-15T13:21:28.087Z,98918.84
2024-01-15T13:24:50.862Z,98934.56
2024-01-15T13:28:12.594Z,98939.97
2024-01-15T13:31:34.493Z,98934.66
2024-01-15T13:34:56.664Z,98932.16
2024-01-15T13:38:18.492Z,98940.22
2024-01-15T13:41:41.636Z,98933.84
2024-01-15T13:45:03.972Z,98938.84
2024-01-15T13:48:25.649Z,98946.91
2024-01-15T13:51:47.608Z,98951.09
2024-01-15T13:55:10.289Z,98950.16
2024-01-15T13:58:33.873Z,98967.19
2024-01-15T14:01:55.928Z,98970.94
2024-01-15T14:05:17.503Z,98988.22
2024-01-15T14:08:39.624Z,98992.53
2024-01-15T14:12:00.963Z,98991.34
2024-01-15T14:15:24.224Z,98997.91
2024-01-15T14:18:46.188Z,98994.03
2024-01-15T14:22:08.134Z,98996.97
2024-01-15T14:25:29.958Z,99006.50
2024-01-15T14:28:52.045Z,99005.47
2024-01-15T14:32:15.384Z,99021.19
2024-01-15T14:35:37.239Z,99029.66
2024-01-15T14:39:00.945Z,99031.53
2024-01-15T14:42:22.511Z,99027.78
2024-01-15T14:45:46.087Z,99036.03
2024-01-15T14:49:09.716Z,99043.91
2024-01-15T14:52:31.528Z,99053.34
2024-01-15T14:55:55.111Z,99064.44
2024-01-15T14:59:16.837Z,99069.03
2024-01-15T15:02:38.874Z,99090.09
2024-01-15T15:06:02.839Z,99092.72
2024-01-15T15:09:24.808Z,99095.22
2024-01-15T15:12:46.082Z,99103.19
2024-01-15T15:16:08.562Z,99110.31
2024-01-15T15:19:30.492Z,99112.94
2024-01-15T15:22:56.828Z,99121.50
2024-01-15T15:26:18.330Z,99131.16
2024-01-15T15:29:39.605Z,99138.59
2024-01-15T15:33:01.393Z,99142.78
2024-01-15T15:36:23.277Z,99134.28
2024-01-15T15:39:46.289Z,99153.28
2024-01-15T15:43:08.004Z,99157.78
2024-01-15T15:46:29.439Z,99167.59
2024-01-15T15:49:50.831Z,99177.25
2024-01-15T15:53:13.566Z,99176.31
2024-01-15T15:56:39.481Z,99183.22
2024-01-15T16:00:01.067Z,99189.59
2024-01-15T16:03:23.252Z,99190.03
2024-01-15T16:06:47.601Z,99203.00
2024-01-15T16:10:10.764Z,99211.16
2024-01-15T16:13:33.884Z,99211.97
2024-01-15T16:23:13.363Z,99223.81
2024-01-15T16:23:32.007Z,99223.81
2024-01-15T16:24:30.068Z,99224.75
2024-01-15T16:27:59.770Z,99235.31
2024-01-15T16:31:23.017Z,99245.78
2024-01-15T16:34:44.126Z,99239.91
2024-01-15T16:38:05.531Z,99247.97
2024-01-15T16:41:27.318Z,99250.38
2024-01-15T16:44:49.013Z,99255.50
2024-01-15T16:48:11.935Z,99253.97
2024-01-15T16:51:33.601Z,99267.72
2024-01-15T16:54:54.956Z,99281.81
2024-01-15T16:58:16.193Z,99280.13
2024-01-15T17:01:37.558Z,99292.59
2024-01-15T17:05:00.193Z,99288.66
2024-01-15T17:08:21.866Z,99300.16
2024-01-15T17:11:43.489Z,99303.72
2024-01-15T17:15:05.549Z,99310.16
2024-01-15T17:18:26.929Z,99310.44
2024-01-15T17:21:49.611Z,99310.72
2024-01-15T17:25:11.012Z,99318.13
2024-01-15T17:28:32.645Z,99309.34
2024-01-15T17:31:54.251Z,99321.00
2024-01-15T17:35:15.834Z,99323.63
2024-01-15T17:38:39.328Z,99315.78
2024-01-15T17:42:00.629Z,99324.69
2024-01-15T17:45:22.105Z,99323.06
2024-01-15T17:48:43.614Z,99335.78
2024-01-15T17:52:05.199Z,99341.38
2024-01-15T17:55:28.326Z,99330.94
2024-01-15T17:58:50.558Z,99332.41
2024-01-15T18:02:12.653Z,99347.91
2024-01-15T18:05:34.450Z,99353.25
2024-01-15T18:08:56.094Z,99359.13
2024-01-15T18:12:18.917Z,99358.28
2024-01-15T18:15:41.138Z,99357.34
2024-01-15T18:19:02.826Z,99361.09
2024-01-15T18:22:24.295Z,99355.78
2024-01-15T18:25:46.207Z,99364.06
2024-01-15T18:29:09.048Z,99375.72
2024-01-15T18:32:30.673Z,99376.66
2024-01-15T18:35:52.444Z,99377.03
2024-01-15T18:39:16.495Z,99382.63
2024-01-15T18:42:37.879Z,99387.13
2024-01-15T18:46:00.631Z,99389.00
2024-01-15T18:49:22.297Z,99403.94
2024-01-15T18:52:43.965Z,99403.94
2024-01-15T18:56:05.890Z,99410.84
2024-01-15T18:59:27.261Z,99410.75
2024-01-15T19:02:49.940Z,99419.53
2024-01-15T19:06:16.237Z,99436.91
2024-01-15T19:09:38.169Z,99428.00
2024-01-15T19:12:59.721Z,99441.00
2024-01-15T19:16:23.347Z,99447.44
2024-01-15T19:19:50.433Z,99449.41
2024-01-15T19:23:11.914Z,99462.97
2024-01-15T19:26:33.428Z,99467.72
2024-01-15T19:29:55.146Z,99471.19
2024-01-15T19:33:16.411Z,99466.97
2024-01-15T19:36:40.837Z,99478.94
2024-01-15T19:40:02.937Z,99477.97
2024-01-15T19:43:24.897Z,99478.72
2024-01-15T19:46:46.204Z,99487.38
2024-01-15T19:50:08.590Z,99500.78
2024-01-15T19:53:31.770Z,99501.88
2024-01-15T19:56:53.539Z,99511.50
2024-01-15T20:00:15.399Z,99519.69
2024-01-15T20:03:36.913Z,99520.56
2024-01-15T20:06:58.797Z,99535.66
2024-01-15T20:10:21.543Z,99544.25
2024-01-15T20:13:43.963Z,99557.03
2024-01-15T20:17:06.007Z,99565.81
2024-01-15T20:20:27.839Z,99567.50
2024-01-15T20:23:55.226Z,99571.91
2024-01-15T20:27:22.121Z,99571.91
2024-01-15T20:30:43.684Z,99571.41
2024-01-15T20:34:05.165Z,99585.41
2024-01-15T20:37:26.726Z,99595.84
2024-01-15T20:40:48.349Z,99606.31
2024-01-15T20:44:11.370Z,99596.44
2024-01-15T20:47:33.365Z,99614.84
2024-01-15T20:50:55.109Z,99615.75
2024-01-15T20:54:16.282Z,99621.81
2024-01-15T20:57:37.625Z,99621.47
2024-01-15T21:01:00.795Z,99634.06
2024-01-15T21:04:23.249Z,99634.97
2024-01-15T21:07:45.364Z,99638.59
2024-01-15T21:11:07.372Z,99639.69
2024-01-15T21:14:28.856Z,99650.50
2024-01-15T21:17:51.566Z,99649.63
2024-01-15T21:21:13.137Z,99650.50
2024-01-15T21:24:34.367Z,99654.63
2024-01-15T21:27:55.719Z,99658.34
2024-01-15T21:31:17.154Z,99668.97
2024-01-15T21:34:39.790Z,99675.78
2024-01-15T21:38:02.179Z,99666.59
2024-01-15T21:41:23.885Z,99668.53
2024-01-15T21:44:45.606Z,99685.06
2024-01-15T21:48:07.507Z,99692.06
2024-01-15T21:51:30.577Z,99688.22
2024-01-15T21:54:52.093Z,99691.47
2024-01-15T21:58:13.428Z,99690.72
2024-01-15T22:01:34.750Z,99689.44
2024-01-15T22:04:56.093Z,99697.22
2024-01-15T22:08:18.873Z,99701.00
2024-01-15T22:11:41.500Z,99709.53
2024-01-15T22:15:04.889Z,99704.97
2024-01-15T22:18:26.170Z,99709.19
2024-01-15T22:21:48.888Z,99711.13
2024-01-15T22:25:12.673Z,99707.41
2024-01-15T22:28:34.274Z,99708.84
2024-01-15T22:31:55.665Z,99712.56
2024-01-15T22:35:17.084Z,99712.72
2024-01-15T22:38:38.903Z,99720.28
2024-01-15T22:42:02.055Z,99720.81
2024-01-15T22:45:23.592Z,99713.13
2024-01-15T22:48:45.354Z,99725.53
2024-01-15T22:52:07.460Z,99719.88
2024-01-15T22:55:28.642Z,99733.47
2024-01-15T22:58:51.279Z,99730.09
2024-01-15T23:02:12.815Z,99734.81
2024-01-15T23:05:34.168Z,99734.75
2024-01-15T23:08:56.525Z,99735.22
2024-01-15T23:12:17.893Z,99748.13
2024-01-15T23:15:40.887Z,99761.91
2024-01-15T23:19:02.240Z,99757.53
2024-01-15T23:22:24.021Z,99760.91
2024-01-15T23:25:45.540Z,99766.03
2024-01-15T23:29:06.836Z,99755.56
2024-01-15T23:32:29.998Z,99769.56
2024-01-15T23:35:53.149Z,99768.75
2024-01-15T23:39:15.883Z,99756.59
2024-01-15T23:42:37.094Z,99737.34
2024-01-15T23:46:06.371Z,99740.88
2024-01-15T23:49:36.549Z,99743.41
2024-01-15T23:52:58.173Z,99748.00
2024-01-15T23:56:19.567Z,99747.88
2024-01-15T23:59:41.983Z,99746.78
